createdAt,value
2022-12-04T00:01:23.075Z,1.93
2022-12-04T00:06:20.587Z,1.94
2022-12-04T00:11:20.169Z,1.94
2022-12-04T00:16:19.610Z,2.03
2022-12-04T00:21:17.447Z,2.05
2022-12-04T00:26:16.280Z,1.99
2022-12-04T00:31:16.009Z,1.97
2022-12-04T00:36:15.286Z,1.93
2022-12-04T00:41:13.950Z,1.92
2022-12-04T00:46:10.553Z,2.00
2022-12-04T00:51:10.357Z,2.00
2022-12-04T00:56:09.394Z,2.03
2022-12-04T01:01:10.485Z,2.02
2022-12-04T01:06:07.498Z,1.97
2022-12-04T01:11:06.783Z,1.94
2022-12-04T01:16:03.642Z,1.94
2022-12-04T01:21:00.181Z,1.95
2022-12-04T01:25:58.649Z,2.00
2022-12-04T01:31:10.082Z,2.00
2022-12-04T01:36:09.612Z,1.94
2022-12-04T01:41:07.627Z,1.88
2022-12-04T01:46:04.310Z,1.93
2022-12-04T01:51:05.607Z,1.90
2022-12-04T01:56:03.206Z,1.88
2022-12-04T02:01:07.921Z,1.94
2022-12-04T02:06:06.480Z,2.06
2022-12-04T02:11:03.014Z,2.03
2022-12-04T02:16:37.204Z,2.00
2022-12-04T02:21:38.604Z,2.02
2022-12-04T02:26:48.708Z,2.02
2022-12-04T02:32:06.451Z,1.95
2022-12-04T02:37:11.214Z,1.93
2022-12-04T02:42:14.276Z,1.92
2022-12-04T02:47:14.947Z,1.93
2022-12-04T02:52:13.699Z,1.96
2022-12-04T02:57:16.058Z,2.00
2022-12-04T03:02:17.502Z,2.06
2022-12-04T03:07:18.197Z,2.01
2022-12-04T03:12:14.801Z,2.01
2022-12-04T03:17:16.789Z,2.03
2022-12-04T03:22:15.699Z,2.00
2022-12-04T03:27:40.555Z,1.99
2022-12-04T03:32:43.405Z,1.98
2022-12-04T03:37:42.601Z,1.97
2022-12-04T03:43:00.921Z,2.06
2022-12-04T03:48:03.787Z,2.12
2022-12-04T03:53:07.643Z,2.13
2022-12-04T03:58:08.551Z,2.08
2022-12-04T04:03:13.613Z,2.07
2022-12-04T04:08:33.697Z,2.07
2022-12-04T04:14:03.679Z,2.09
2022-12-04T04:19:19.308Z,2.08
2022-12-04T04:24:28.063Z,2.11
2022-12-04T04:29:25.731Z,2.11
2022-12-04T04:34:38.124Z,2.11
2022-12-04T04:39:38.891Z,2.07
2022-12-04T04:44:38.377Z,2.04
2022-12-04T04:49:35.984Z,2.07
2022-12-04T04:54:34.010Z,2.08
2022-12-04T04:59:30.608Z,2.02
2022-12-04T05:04:27.100Z,2.03
2022-12-04T05:09:23.746Z,2.06
2022-12-04T05:14:20.311Z,2.06
2022-12-04T05:19:35.481Z,2.05
2022-12-04T05:24:31.982Z,2.06
2022-12-04T05:29:31.636Z,2.08
2022-12-04T05:34:32.263Z,2.11
2022-12-04T05:39:28.809Z,2.10
2022-12-04T05:44:25.327Z,2.16
2022-12-04T05:49:21.955Z,2.15
2022-12-04T05:54:19.022Z,2.17
2022-12-04T05:59:15.443Z,2.14
2022-12-04T06:04:12.222Z,2.16
2022-12-04T06:09:09.131Z,2.17
2022-12-04T06:14:08.333Z,2.19
2022-12-04T06:19:11.578Z,2.24
2022-12-04T06:24:10.363Z,2.26
2022-12-04T06:29:06.890Z,2.28
2022-12-04T06:34:03.474Z,2.27
2022-12-04T06:39:00.009Z,2.26
2022-12-04T06:43:56.633Z,2.27
2022-12-04T06:48:55.164Z,2.30
2022-12-04T06:53:52.296Z,2.31
2022-12-04T06:58:49.299Z,2.34
2022-12-04T07:03:51.062Z,2.33
2022-12-04T07:08:50.330Z,2.35
2022-12-04T07:13:47.410Z,2.41
2022-12-04T07:18:43.916Z,2.40
2022-12-04T07:23:40.706Z,2.39
2022-12-04T07:28:37.903Z,2.43
2022-12-04T07:33:34.256Z,2.44
2022-12-04T07:38:31.766Z,2.43
2022-12-04T07:43:29.439Z,2.47
2022-12-04T07:48:31.733Z,2.51
2022-12-04T07:54:25.702Z,2.55
2022-12-04T07:59:24.434Z,2.62
2022-12-04T08:04:20.986Z,2.76
2022-12-04T08:09:17.586Z,2.71
2022-12-04T08:14:14.822Z,2.71
2022-12-04T08:19:11.433Z,2.70
2022-12-04T08:24:09.159Z,2.71
2022-12-04T08:29:06.585Z,2.70
2022-12-04T08:34:06.291Z,2.74
2022-12-04T08:39:03.669Z,2.71
2022-12-04T08:44:01.024Z,2.77
2022-12-04T08:48:58.098Z,2.76
2022-12-04T08:53:55.552Z,2.80
2022-12-04T08:58:52.476Z,2.80
2022-12-04T09:03:49.043Z,2.81
2022-12-04T09:08:45.695Z,2.96
2022-12-04T09:13:42.759Z,3.01
2022-12-04T09:18:40.042Z,3.04
2022-12-04T09:23:38.327Z,3.10
2022-12-04T09:28:34.987Z,3.12
2022-12-04T09:33:33.212Z,3.13
2022-12-04T09:38:30.936Z,3.17
2022-12-04T09:43:27.505Z,3.20
2022-12-04T09:48:31.674Z,3.25
2022-12-04T09:53:42.667Z,3.27
2022-12-04T09:58:50.914Z,3.26
2022-12-04T10:03:53.776Z,3.34
2022-12-04T10:09:21.486Z,3.37
2022-12-04T10:14:34.183Z,3.36
2022-12-04T10:19:37.617Z,3.51
2022-12-04T10:24:51.003Z,3.55
2022-12-04T10:29:59.726Z,3.50
2022-12-04T10:35:04.369Z,3.46
2022-12-04T10:40:24.409Z,3.48
2022-12-04T10:45:24.579Z,3.70
2022-12-04T10:50:34.698Z,3.47
2022-12-04T10:55:38.506Z,3.73
2022-12-04T11:00:36.297Z,3.71
2022-12-04T11:06:05.115Z,3.57
2022-12-04T11:11:11.574Z,3.73
2022-12-04T11:16:09.046Z,3.77
2022-12-04T11:21:13.708Z,3.79
2022-12-04T11:26:16.235Z,3.77
2022-12-04T11:31:20.124Z,3.86
2022-12-04T11:36:23.231Z,3.82
2022-12-04T11:41:28.540Z,3.64
2022-12-04T11:46:29.006Z,3.73
2022-12-04T11:51:41.922Z,3.90
2022-12-04T11:56:47.420Z,3.88
2022-12-04T12:02:12.574Z,3.90
2022-12-04T12:07:21.861Z,3.82
2022-12-04T12:12:29.735Z,3.90
2022-12-04T12:17:41.201Z,4.00
2022-12-04T12:23:17.655Z,4.00
2022-12-04T12:28:51.735Z,4.05
2022-12-04T12:34:29.232Z,4.08
2022-12-04T12:39:52.921Z,4.02
2022-12-04T12:45:01.766Z,3.92
2022-12-04T12:50:27.930Z,3.88
2022-12-04T12:55:49.059Z,3.98
2022-12-04T13:01:00.268Z,4.14
2022-12-04T13:06:15.092Z,4.15
2022-12-04T13:11:13.834Z,4.23
2022-12-04T13:16:19.363Z,4.25
2022-12-04T13:21:42.733Z,4.33
2022-12-04T13:26:59.150Z,4.40
2022-12-04T13:32:44.226Z,4.40
2022-12-04T13:37:54.525Z,4.42
2022-12-04T13:42:54.445Z,4.40
2022-12-04T13:48:08.738Z,4.40
2022-12-04T13:53:06.734Z,4.42
2022-12-04T13:58:16.875Z,4.46
2022-12-04T14:03:33.364Z,4.48
2022-12-04T14:08:37.239Z,4.51
2022-12-04T14:19:33.103Z,4.54
2022-12-04T14:24:37.864Z,4.54
2022-12-04T14:29:55.304Z,4.59
2022-12-04T14:35:04.173Z,4.59
2022-12-04T14:40:13.792Z,4.58
2022-12-04T14:45:49.107Z,4.61
2022-12-04T14:51:21.841Z,4.63
2022-12-04T14:56:39.149Z,4.59
2022-12-04T15:01:46.688Z,4.68
2022-12-04T15:07:02.834Z,4.67
2022-12-04T15:12:42.641Z,4.62
2022-12-04T15:17:45.574Z,4.59
2022-12-04T15:22:47.982Z,4.68
2022-12-04T15:27:50.401Z,4.66
2022-12-04T15:32:57.022Z,4.69
2022-12-04T15:37:59.034Z,4.62
2022-12-04T15:43:13.022Z,4.69
2022-12-04T15:48:10.233Z,4.70
2022-12-04T15:53:15.618Z,4.45
2022-12-04T15:58:37.254Z,4.74
2022-12-04T16:03:43.995Z,4.80
2022-12-04T16:08:56.603Z,4.70
2022-12-04T16:14:19.894Z,4.85
2022-12-04T16:19:39.160Z,4.84
2022-12-04T16:24:35.909Z,4.79
2022-12-04T16:29:35.893Z,4.87
2022-12-04T16:34:40.185Z,4.89
2022-12-04T16:39:41.830Z,4.86
2022-12-04T16:44:40.845Z,4.89
2022-12-04T16:49:37.710Z,4.96
2022-12-04T16:54:37.484Z,4.98
2022-12-04T16:59:33.997Z,5.02
2022-12-04T17:04:31.180Z,5.07
2022-12-04T17:09:27.880Z,5.08
2022-12-04T17:14:24.492Z,5.09
2022-12-04T17:19:22.138Z,5.09
2022-12-04T17:24:18.781Z,5.09
2022-12-04T17:29:15.317Z,5.10
2022-12-04T17:34:11.920Z,5.12
2022-12-04T17:39:11.747Z,5.17
2022-12-04T17:44:08.264Z,5.19
2022-12-04T17:49:07.342Z,5.17
2022-12-04T17:54:10.760Z,5.19
2022-12-04T17:59:12.228Z,5.02
2022-12-04T18:04:25.393Z,5.20
2022-12-04T18:09:25.661Z,5.21
2022-12-04T18:14:24.045Z,5.29
2022-12-04T18:19:26.940Z,5.29
2022-12-04T18:24:25.331Z,5.34
2022-12-04T18:29:24.700Z,5.36
2022-12-04T18:34:21.918Z,5.32
2022-12-04T18:39:21.142Z,5.33
2022-12-04T18:44:24.336Z,5.30
2022-12-04T18:49:21.467Z,5.30
2022-12-04T18:54:23.144Z,5.32
2022-12-04T18:59:24.972Z,5.28
2022-12-04T19:04:23.318Z,5.31
2022-12-04T19:10:10.475Z,5.31
2022-12-04T19:14:43.857Z,5.30
2022-12-04T19:19:41.329Z,5.31
2022-12-04T19:24:38.554Z,5.30
2022-12-04T19:29:44.138Z,5.32
2022-12-04T19:34:43.765Z,5.32
2022-12-04T19:39:43.059Z,5.36
2022-12-04T19:44:48.245Z,5.36
2022-12-04T19:49:46.685Z,5.34
2022-12-04T19:54:43.492Z,5.31
2022-12-04T19:59:46.762Z,5.31
2022-12-04T20:04:46.888Z,5.33
2022-12-04T20:09:51.959Z,5.36
2022-12-04T20:14:52.412Z,5.33
2022-12-04T20:19:49.565Z,5.31
2022-12-04T20:24:46.465Z,5.32
2022-12-04T20:29:46.170Z,5.34
2022-12-04T20:34:43.942Z,5.32
2022-12-04T20:39:42.583Z,5.32
2022-12-04T20:44:41.765Z,5.40
2022-12-04T20:49:41.605Z,5.41
2022-12-04T20:54:41.562Z,5.40
2022-12-04T20:59:40.591Z,5.38
2022-12-04T21:04:38.313Z,5.41
2022-12-04T21:09:37.570Z,5.46
2022-12-04T21:14:52.960Z,5.42
2022-12-04T21:19:53.591Z,5.42
2022-12-04T21:24:52.713Z,5.32
